createdAt,value
2022-09-21T00:00:55.080Z,96227
2022-09-21T00:01:57.865Z,96224.5
2022-09-21T00:03:00.553Z,96226.5
2022-09-21T00:04:02.886Z,96225.4
2022-09-21T00:05:04.560Z,96224.2
2022-09-21T00:06:06.757Z,96224.7
2022-09-21T00:07:08.400Z,96226.6
2022-09-21T00:08:10.887Z,96228.2
2022-09-21T00:09:13.357Z,96223
2022-09-21T00:10:15.861Z,96223.4
2022-09-21T00:11:18.355Z,96224.5
2022-09-21T00:12:20.825Z,96223.5
2022-09-21T00:13:23.301Z,96222.4
2022-09-21T00:14:25.486Z,96224.5
2022-09-21T00:15:28.004Z,96222
2022-09-21T00:16:30.724Z,96220.7
2022-09-21T00:17:32.947Z,96218.6
2022-09-21T00:18:35.571Z,96222.3
2022-09-21T00:19:38.056Z,96220.9
2022-09-21T00:20:40.518Z,96224.5
2022-09-21T00:21:42.995Z,96223
2022-09-21T00:22:45.190Z,96220.4
2022-09-21T00:23:47.469Z,96222.4
2022-09-21T00:24:49.936Z,96219.9
2022-09-21T00:25:52.435Z,96222.2
2022-09-21T00:26:54.926Z,96222.4
2022-09-21T00:27:57.404Z,96221.1
2022-09-21T00:28:59.884Z,96222.5
2022-09-21T00:30:02.075Z,96221.4
2022-09-21T00:31:04.269Z,96219.6
2022-09-21T00:32:07.035Z,96221.3
2022-09-21T00:33:09.633Z,96224.9
2022-09-21T00:34:11.825Z,96219.3
2022-09-21T00:35:14.043Z,96219.7
2022-09-21T00:36:16.514Z,96223
2022-09-21T00:37:18.988Z,96217.7
2022-09-21T00:38:21.456Z,96221.7
2022-09-21T00:39:23.735Z,96224.5
2022-09-21T00:40:26.443Z,96220.8
2022-09-21T00:41:29.042Z,96220.4
2022-09-21T00:42:31.562Z,96223
2022-09-21T00:43:34.036Z,96223.7
2022-09-21T00:44:35.934Z,96225.5
2022-09-21T00:45:38.379Z,96221.7
2022-09-21T00:46:40.437Z,96220.5
2022-09-21T00:47:42.926Z,96222.4
2022-09-21T00:48:45.404Z,96222.5
2022-09-21T00:49:47.881Z,96218.5
2022-09-21T00:50:50.364Z,96221.9
2022-09-21T00:51:52.842Z,96221.3
2022-09-21T00:52:55.306Z,96221.3
2022-09-21T00:53:57.508Z,96222.9
2022-09-21T00:55:00.000Z,96220.8
2022-09-21T00:56:02.511Z,96221.5
2022-09-21T00:57:05.078Z,96224.3
2022-09-21T00:58:07.306Z,96223.5
2022-09-21T00:59:09.777Z,96222.3
2022-09-21T01:00:11.985Z,96223.1
2022-09-21T01:01:14.355Z,96223.8
2022-09-21T01:02:16.908Z,96221.6
2022-09-21T01:03:19.466Z,96218.5
2022-09-21T01:04:21.955Z,96218.5
2022-09-21T01:05:23.599Z,96221.6
2022-09-21T01:06:26.100Z,96218.9
2022-09-21T01:07:28.305Z,96217.4
2022-09-21T01:08:30.502Z,96218.6
2022-09-21T01:09:32.696Z,96221.8
2022-09-21T01:10:35.197Z,96223.1
2022-09-21T01:11:37.655Z,96218.9
2022-09-21T01:12:39.891Z,96215.2
2022-09-21T01:13:42.135Z,96219.6
2022-09-21T01:14:44.617Z,96218.2
2022-09-21T01:15:47.078Z,96216.8
2022-09-21T01:16:49.565Z,96214.5
2022-09-21T01:17:51.771Z,96215.4
2022-09-21T01:18:54.244Z,96213.7
2022-09-21T01:19:56.724Z,96218.3
2022-09-21T01:20:59.191Z,96213.6
2022-09-21T01:22:01.691Z,96215.3
2022-09-21T01:23:04.171Z,96213
2022-09-21T01:24:06.675Z,96213
2022-09-21T01:25:08.874Z,96212.8
2022-09-21T01:26:11.374Z,96212.9
2022-09-21T01:27:13.835Z,96213.3
2022-09-21T01:28:16.086Z,96216.3
2022-09-21T01:29:18.311Z,96212.8
2022-09-21T01:30:20.517Z,96210.2
2022-09-21T01:31:23.187Z,96215.3
2022-09-21T01:32:25.727Z,96211.7
2022-09-21T01:33:28.194Z,96210
2022-09-21T01:34:30.397Z,96209.9
2022-09-21T01:35:32.591Z,96212.2
2022-09-21T01:36:35.073Z,96211.4
2022-09-21T01:37:37.362Z,96211.7
2022-09-21T01:38:39.843Z,96213.5
2022-09-21T01:39:42.319Z,96213.3
2022-09-21T01:40:45.312Z,96214
2022-09-21T01:41:47.889Z,96212.8
2022-09-21T01:42:50.368Z,96218.1
2022-09-21T01:43:52.961Z,96217.6
2022-09-21T01:44:55.447Z,96218
2022-09-21T01:45:57.662Z,96215.2
2022-09-21T01:46:59.933Z,96222.3
2022-09-21T01:48:02.407Z,96219.7
2022-09-21T01:49:04.613Z,96217.4
2022-09-21T01:50:07.051Z,96218.8
2022-09-21T01:51:09.248Z,96220
2022-09-21T01:52:11.457Z,96219.9
2022-09-21T01:53:13.948Z,96220.8
2022-09-21T01:54:16.453Z,96220.1
2022-09-21T01:55:18.968Z,96220.3
2022-09-21T01:56:21.458Z,96220.1
2022-09-21T01:57:23.967Z,96216.8
2022-09-21T01:58:26.432Z,96214.8
2022-09-21T01:59:29.031Z,96215.6
2022-09-21T02:00:31.500Z,96217.6
2022-09-21T02:01:34.112Z,96216.1
2022-09-21T02:02:36.578Z,96223.9
2022-09-21T02:03:38.778Z,96216.1
2022-09-21T02:04:40.965Z,96219.5
2022-09-21T02:05:43.440Z,96217
2022-09-21T02:07:00.301Z,96217.9
2022-09-21T02:08:02.763Z,96214.5
2022-09-21T02:09:05.247Z,96217.6
2022-09-21T02:10:07.441Z,96218.6
2022-09-21T02:11:09.360Z,96214.3
2022-09-21T02:12:16.915Z,96218.4
2022-09-21T02:13:19.703Z,96217.6
2022-09-21T02:14:22.170Z,96216.6
2022-09-21T02:15:24.702Z,96218.3
2022-09-21T02:16:27.081Z,96218.1
2022-09-21T02:17:29.640Z,96211.9
2022-09-21T02:18:32.112Z,96216
2022-09-21T02:19:34.589Z,96212.5
2022-09-21T02:20:36.774Z,96211.5
2022-09-21T02:21:39.255Z,96213.3
2022-09-21T02:22:41.751Z,96215.4
2022-09-21T02:23:43.936Z,96211.5
2022-09-21T02:24:46.432Z,96213.3
2022-09-21T02:25:48.906Z,96209.4
2022-09-21T02:26:51.381Z,96215.5
2022-09-21T02:27:53.860Z,96213.5
2022-09-21T02:28:56.544Z,96215.7
2022-09-21T02:29:58.810Z,96213.6
2022-09-21T02:31:01.558Z,96213.5
2022-09-21T02:32:03.895Z,96215
2022-09-21T02:33:06.068Z,96215.8
2022-09-21T02:34:08.716Z,96211.5
2022-09-21T02:35:11.231Z,96212.3
2022-09-21T02:36:13.705Z,96216.5
2022-09-21T02:37:16.182Z,96213.9
2022-09-21T02:38:18.376Z,96216.3
2022-09-21T02:39:20.856Z,96215.6
2022-09-21T02:40:23.393Z,96217.3
2022-09-21T02:41:25.986Z,96216.5
2022-09-21T02:42:28.461Z,96218
2022-09-21T02:43:30.938Z,96213.4
2022-09-21T02:44:33.454Z,96222.4
2022-09-21T02:45:35.929Z,96224.9
2022-09-21T02:46:38.359Z,96221.9
2022-09-21T02:47:41.007Z,96220.1
2022-09-21T02:48:43.215Z,96220.3
2022-09-21T02:49:45.694Z,96224.2
2022-09-21T02:50:48.172Z,96217.6
2022-09-21T02:51:50.724Z,96222
2022-09-21T02:52:53.193Z,96214.1
2022-09-21T02:53:55.664Z,96218.5
2022-09-21T02:54:57.567Z,96218.4
2022-09-21T02:56:00.070Z,96219.9
2022-09-21T02:57:02.546Z,96220.3
2022-09-21T02:58:04.744Z,96217.6
2022-09-21T02:59:07.845Z,96219
2022-09-21T03:00:10.078Z,96219.8
2022-09-21T03:01:12.602Z,96222
2022-09-21T03:02:15.152Z,96219.4
2022-09-21T03:03:17.751Z,96222.9
2022-09-21T03:04:19.945Z,96223.9
2022-09-21T03:05:22.128Z,96220.9
2022-09-21T03:06:24.595Z,96221.8
2022-09-21T03:07:26.775Z,96218.2
2022-09-21T03:08:29.271Z,96218.7
2022-09-21T03:09:31.747Z,96216.5
2022-09-21T03:10:33.924Z,96219
2022-09-21T03:11:36.130Z,96216.7
2022-09-21T03:12:38.329Z,96220.4
2022-09-21T03:13:40.796Z,96221.9
2022-09-21T03:14:42.425Z,96219.8
2022-09-21T03:15:44.902Z,96221.5
2022-09-21T03:16:47.449Z,96221.7
2022-09-21T03:17:50.038Z,96222.8
2022-09-21T03:18:52.512Z,96225.3
2022-09-21T03:19:54.995Z,96222.5
2022-09-21T03:20:57.457Z,96226.6
2022-09-21T03:21:59.363Z,96221.6
2022-09-21T03:23:01.840Z,96225.6
2022-09-21T03:24:04.318Z,96223.2
2022-09-21T03:25:06.778Z,96226.2
2022-09-21T03:26:08.999Z,96221.5
2022-09-21T03:27:11.494Z,96225.7
2022-09-21T03:28:13.396Z,96226
2022-09-21T03:29:15.863Z,96228.2
2022-09-21T03:30:18.339Z,96228.4
2022-09-21T03:31:21.013Z,96230.2
2022-09-21T03:32:23.257Z,96226.4
2022-09-21T03:33:25.763Z,96229.9
2022-09-21T03:34:27.972Z,96233.6
2022-09-21T03:35:30.708Z,96230.3
2022-09-21T03:36:33.287Z,96228.6
2022-09-21T03:38:40.807Z,96231.5
2022-09-21T03:39:43.317Z,96228.1
2022-09-21T03:40:45.825Z,96226.7
2022-09-21T03:41:48.313Z,96224.9
2022-09-21T03:42:50.871Z,96227.1
2022-09-21T03:43:52.822Z,96223.9
2022-09-21T03:44:54.739Z,96225.7
2022-09-21T03:45:57.440Z,96226.6
2022-09-21T03:47:00.276Z,96226.5
2022-09-21T03:48:02.951Z,96225.2
2022-09-21T03:49:05.461Z,96230.8
2022-09-21T03:51:12.966Z,96229.1
2022-09-21T03:52:15.451Z,96229.7
2022-09-21T03:53:17.959Z,96230.8
2022-09-21T03:54:20.447Z,96228.9
2022-09-21T03:55:22.945Z,96228.8
2022-09-21T03:56:25.160Z,96224.5
2022-09-21T03:57:27.646Z,96223.8
2022-09-21T03:58:29.916Z,96224.6
2022-09-21T03:59:32.394Z,96226.4
2022-09-21T04:00:34.334Z,96223.9
2022-09-21T04:01:36.718Z,96229.8
2022-09-21T04:02:39.540Z,96228.4
2022-09-21T04:03:42.092Z,96224.2
2022-09-21T04:04:44.635Z,96228.1
2022-09-21T04:05:47.170Z,96227.7
2022-09-21T04:06:49.354Z,96230
2022-09-21T04:07:51.830Z,96234.5
2022-09-21T04:08:54.011Z,96226.9
2022-09-21T04:09:56.483Z,96227.6
2022-09-21T04:10:58.963Z,96223.7
2022-09-21T04:12:01.161Z,96230.7
2022-09-21T04:13:03.089Z,96229.4
2022-09-21T04:14:05.295Z,96233
2022-09-21T04:15:07.210Z,96234.5
2022-09-21T04:16:09.896Z,96234.6
2022-09-21T04:17:12.888Z,96238.4
2022-09-21T04:18:15.405Z,96238
2022-09-21T04:19:17.884Z,96243.8
2022-09-21T04:20:20.545Z,96237.9
2022-09-21T04:21:23.096Z,96239.7
2022-09-21T04:22:25.317Z,96241.5
2022-09-21T04:23:27.839Z,96242.4
2022-09-21T04:24:29.760Z,96239.5
2022-09-21T04:25:31.953Z,96244.4
2022-09-21T04:26:34.443Z,96242.6
2022-09-21T04:27:36.914Z,96243.2
2022-09-21T04:28:39.378Z,96239.9
2022-09-21T04:29:41.653Z,96234.8
2022-09-21T04:30:44.311Z,96236.3
2022-09-21T04:31:46.953Z,96238.8
2022-09-21T04:32:49.423Z,96238.8
2022-09-21T04:33:51.406Z,96236.5
2022-09-21T04:34:53.593Z,96238.7
2022-09-21T04:35:56.143Z,96239.2
2022-09-21T04:36:58.633Z,96241.8
2022-09-21T04:38:01.122Z,96239
2022-09-21T04:39:03.589Z,96241.5
2022-09-21T04:40:05.807Z,96243.1
2022-09-21T04:41:08.138Z,96238.7
2022-09-21T04:42:10.084Z,96242.6
2022-09-21T04:43:12.280Z,96241.5
2022-09-21T04:44:14.501Z,96244.9
2022-09-21T04:45:16.991Z,96245.9
2022-09-21T04:46:19.795Z,96248.2
2022-09-21T04:47:22.127Z,96246.5
2022-09-21T04:48:24.324Z,96250.3
2022-09-21T04:49:26.278Z,96250.6
2022-09-21T04:50:28.198Z,96247.4
2022-09-21T04:51:30.718Z,96254.3
2022-09-21T04:52:32.917Z,96252.6
2022-09-21T04:53:35.393Z,96253.8
2022-09-21T04:54:37.859Z,96258.7
2022-09-21T04:55:40.332Z,96258.4
2022-09-21T04:56:42.794Z,96265.5
2022-09-21T04:57:44.999Z,96261.5
2022-09-21T04:58:47.460Z,96260.9
2022-09-21T04:59:49.946Z,96260.7
2022-09-21T05:00:52.484Z,96261.9
2022-09-21T05:01:55.038Z,96267.5
2022-09-21T05:02:57.512Z,96265.8
2022-09-21T05:04:00.014Z,96265.9
2022-09-21T05:05:02.704Z,96263.3
2022-09-21T05:06:05.168Z,96267.1
2022-09-21T05:07:07.703Z,96270.1
2022-09-21T05:08:10.200Z,96272.3
2022-09-21T05:09:12.378Z,96271
2022-09-21T05:10:14.858Z,96275.2
2022-09-21T05:11:17.362Z,96274.1
2022-09-21T05:12:19.566Z,96276.4
2022-09-21T05:13:21.762Z,96274.4
2022-09-21T05:14:24.247Z,96277.3
2022-09-21T05:15:26.771Z,96276
2022-09-21T05:16:29.355Z,96277.4
2022-09-21T05:17:31.824Z,96278.9
2022-09-21T05:18:34.322Z,96278.6
2022-09-21T05:19:36.790Z,96275.9
2022-09-21T05:20:39.297Z,96273
2022-09-21T05:21:41.196Z,96277.6
2022-09-21T05:22:43.715Z,96280.8
2022-09-21T05:23:46.320Z,96277.8
2022-09-21T05:24:48.525Z,96277
2022-09-21T05:25:51.019Z,96275.8
2022-09-21T05:26:53.238Z,96277.5
2022-09-21T05:27:55.709Z,96278.4
2022-09-21T05:28:58.200Z,96279.2
2022-09-21T05:30:00.808Z,96283.3
2022-09-21T05:32:08.327Z,96282.3
2022-09-21T05:33:10.821Z,96282.3
2022-09-21T05:34:13.018Z,96278.2
2022-09-21T05:35:15.494Z,96272.7
2022-09-21T05:36:17.712Z,96281
2022-09-21T05:37:19.611Z,96275.8
2022-09-21T05:38:22.127Z,96280.5
2022-09-21T05:39:24.376Z,96272.8
2022-09-21T05:40:26.844Z,96275.5
2022-09-21T05:41:29.495Z,96280.8
2022-09-21T05:42:31.959Z,96277.7
2022-09-21T05:43:34.450Z,96279
2022-09-21T05:44:36.920Z,96280.6
2022-09-21T05:45:39.078Z,96282.9
2022-09-21T05:46:41.280Z,96281.3
2022-09-21T05:47:43.507Z,96282.1
2022-09-21T05:48:45.976Z,96280.3
2022-09-21T05:49:48.163Z,96285.3
2022-09-21T05:50:50.065Z,96279.3
2022-09-21T05:51:52.300Z,96281.3
2022-09-21T05:52:54.218Z,96282
2022-09-21T05:53:56.799Z,96281.5
2022-09-21T05:54:58.460Z,96281.7
2022-09-21T05:56:00.943Z,96279.5
2022-09-21T05:57:03.113Z,96280.8
2022-09-21T05:58:05.612Z,96282.1
2022-09-21T05:59:08.091Z,96283
2022-09-21T06:00:10.581Z,96281.7
2022-09-21T06:01:13.219Z,96285.6
2022-09-21T06:02:16.020Z,96285.5
2022-09-21T06:03:19.331Z,96287.4
2022-09-21T06:04:21.824Z,96286
2022-09-21T06:05:24.318Z,96284.9
2022-09-21T06:06:26.494Z,96286.4
2022-09-21T06:07:28.707Z,96288.3
2022-09-21T06:08:31.218Z,96288.5
2022-09-21T06:09:33.477Z,96292.3
2022-09-21T06:10:35.443Z,96288.1
2022-09-21T06:11:37.921Z,96291.1
2022-09-21T06:12:40.393Z,96289.6
2022-09-21T06:13:42.863Z,96290.1
2022-09-21T06:14:45.071Z,96297.1
2022-09-21T06:15:46.989Z,96296.5
2022-09-21T06:16:49.459Z,96294.8
2022-09-21T06:17:52.042Z,96296
2022-09-21T06:18:54.539Z,96296.4
2022-09-21T06:19:56.740Z,96294.9
2022-09-21T06:20:59.248Z,96296
2022-09-21T06:22:01.547Z,96295.1
2022-09-21T06:23:04.055Z,96295.4
2022-09-21T06:24:06.517Z,96295.7
2022-09-21T06:25:08.749Z,96295.4
2022-09-21T06:26:11.252Z,96298.2
2022-09-21T06:27:13.724Z,96299
2022-09-21T06:28:16.209Z,96301.9
2022-09-21T06:29:18.669Z,96295.7
2022-09-21T06:30:21.154Z,96297.1
2022-09-21T06:31:23.631Z,96301
2022-09-21T06:32:25.528Z,96299.8
2022-09-21T06:33:27.718Z,96299.5
2022-09-21T06:34:29.933Z,96300.4
2022-09-21T06:35:32.404Z,96299.5
2022-09-21T06:36:34.601Z,96301.4
2022-09-21T06:37:36.516Z,96303.6
2022-09-21T06:38:38.477Z,96297.6
2022-09-21T06:39:40.675Z,96303.1
2022-09-21T06:40:43.463Z,96302.7
2022-09-21T06:41:45.810Z,96304.3
2022-09-21T06:42:47.995Z,96305.6
2022-09-21T06:43:50.208Z,96303.2
2022-09-21T06:44:52.687Z,96308.3
2022-09-21T06:45:55.138Z,96312.1
2022-09-21T06:46:57.778Z,96309.2
2022-09-21T06:48:00.247Z,96311.7
2022-09-21T06:49:02.474Z,96310.8
2022-09-21T06:50:04.978Z,96312
2022-09-21T06:51:07.183Z,96315.1
2022-09-21T06:52:09.383Z,96310.8
2022-09-21T06:53:11.596Z,96308.7
2022-09-21T06:54:13.797Z,96311.3
2022-09-21T06:55:15.983Z,96311.5
2022-09-21T06:56:18.186Z,96307.5
2022-09-21T06:57:20.679Z,96305.9
2022-09-21T06:58:23.146Z,96306.8
2022-09-21T06:59:25.350Z,96307.4
2022-09-21T07:00:27.676Z,96305.2
2022-09-21T07:01:30.400Z,96306.7
2022-09-21T07:02:33.088Z,96307.1
2022-09-21T07:03:35.564Z,96306.4
2022-09-21T07:04:37.762Z,96309.5
2022-09-21T07:05:39.699Z,96310
2022-09-21T07:06:42.174Z,96309.4
2022-09-21T07:07:44.392Z,96306.4
2022-09-21T07:10:56.643Z,96312
2022-09-21T07:11:59.154Z,96307.4
2022-09-21T07:13:01.406Z,96305.7
2022-09-21T07:14:03.588Z,96312
2022-09-21T07:15:06.059Z,96307.9
2022-09-21T07:16:08.515Z,96308.7
2022-09-21T07:18:16.539Z,96311.7
2022-09-21T07:19:19.048Z,96308.6
2022-09-21T07:20:21.246Z,96306.3
2022-09-21T07:21:23.472Z,96306.3
2022-09-21T07:22:25.860Z,96310.7
2022-09-21T07:23:27.776Z,96304.4
2022-09-21T07:24:30.289Z,96308.5
2022-09-21T07:25:32.504Z,96308.4
2022-09-21T07:26:34.995Z,96309.2
2022-09-21T07:27:37.226Z,96311.5
2022-09-21T07:28:39.725Z,96309.8
2022-09-21T07:29:41.931Z,96306.9
2022-09-21T07:30:44.134Z,96308.3
2022-09-21T07:31:46.463Z,96306.2
2022-09-21T07:32:49.043Z,96308.3
2022-09-21T07:33:51.523Z,96309.4
2022-09-21T07:34:53.991Z,96307.6
2022-09-21T07:35:56.467Z,96311
2022-09-21T07:36:58.727Z,96308.1
2022-09-21T07:38:01.260Z,96307.8
2022-09-21T07:39:03.737Z,96308.3
2022-09-21T07:40:06.292Z,96308.3
2022-09-21T07:41:08.610Z,96312.2
2022-09-21T07:42:11.110Z,96311.3
2022-09-21T07:43:13.654Z,96314.5
2022-09-21T07:44:16.155Z,96315.8
2022-09-21T07:45:18.768Z,96317.3
2022-09-21T07:46:21.060Z,96319.2
2022-09-21T07:47:23.009Z,96314.3
2022-09-21T07:48:25.212Z,96315.1
2022-09-21T07:49:27.404Z,96314.8
2022-09-21T07:50:29.882Z,96314.3
2022-09-21T07:51:32.373Z,96317.5
2022-09-21T07:52:34.904Z,96315.8
2022-09-21T07:53:37.108Z,96317.5
2022-09-21T07:54:39.043Z,96310.8
2022-09-21T07:55:40.967Z,96312.8
2022-09-21T07:56:43.470Z,96313
2022-09-21T07:57:45.967Z,96317.1
2022-09-21T07:58:48.492Z,96319.4
2022-09-21T07:59:50.706Z,96315.1
2022-09-21T08:00:52.837Z,96312.8
2022-09-21T08:01:55.261Z,96314.5
2022-09-21T08:02:57.615Z,96320.9
2022-09-21T08:03:59.355Z,96322.9
2022-09-21T08:05:01.596Z,96312.7
2022-09-21T08:06:03.854Z,96318.7
2022-09-21T08:07:06.605Z,96321.6
2022-09-21T08:08:09.149Z,96319.5
2022-09-21T08:09:11.370Z,96321.4
2022-09-21T08:10:13.565Z,96322.3
2022-09-21T08:11:16.049Z,96322.3
2022-09-21T08:12:18.258Z,96316.7
2022-09-21T08:13:20.483Z,96317.1
2022-09-21T08:16:33.650Z,96315.8
2022-09-21T08:17:36.519Z,96314
2022-09-21T08:18:40.191Z,96316.1
2022-09-21T08:19:42.396Z,96312.9
2022-09-21T08:20:44.608Z,96313
2022-09-21T08:21:47.090Z,96315.6
2022-09-21T08:22:49.063Z,96316.7
2022-09-21T08:23:51.262Z,96316
2022-09-21T08:24:53.729Z,96317.1
2022-09-21T08:25:55.948Z,96317.2
2022-09-21T08:26:58.452Z,96311.4
2022-09-21T08:28:00.363Z,96318.9
2022-09-21T08:29:02.864Z,96319.5
2022-09-21T08:30:05.348Z,96324.1
2022-09-21T08:31:08.048Z,96322.5
2022-09-21T08:33:16.368Z,96322.5
2022-09-21T08:34:18.587Z,96319.4
2022-09-21T08:35:21.059Z,96320.1
2022-09-21T08:36:23.611Z,96319.7
2022-09-21T08:37:25.822Z,96317.5
2022-09-21T08:38:28.312Z,96321.6
2022-09-21T08:39:30.927Z,96317.3
2022-09-21T08:40:33.760Z,96324.5
2022-09-21T08:41:36.437Z,96321.8
2022-09-21T08:42:38.922Z,96321.5
2022-09-21T08:43:41.404Z,96322
2022-09-21T08:44:43.929Z,96324.7
2022-09-21T08:45:45.828Z,96324.8
2022-09-21T08:46:48.382Z,96322
2022-09-21T08:47:50.995Z,96325.1
2022-09-21T08:48:53.201Z,96324.2
2022-09-21T08:49:55.417Z,96325
2022-09-21T08:50:57.902Z,96328.1
2022-09-21T08:52:00.865Z,96325.5
2022-09-21T08:53:03.364Z,96329.5
2022-09-21T08:54:06.250Z,96326.5
2022-09-21T08:55:08.588Z,96326.9
2022-09-21T08:56:10.793Z,96328.7
2022-09-21T08:57:13.014Z,96326.7
2022-09-21T08:58:15.487Z,96330
2022-09-21T08:59:17.979Z,96326.1
2022-09-21T09:00:20.173Z,96327
2022-09-21T09:01:22.822Z,96325
2022-09-21T09:02:25.098Z,96322.9
2022-09-21T09:03:27.760Z,96322.1
2022-09-21T09:04:29.980Z,96320.7
2022-09-21T09:05:32.523Z,96321.4
2022-09-21T09:06:35.001Z,96317.1
2022-09-21T09:07:37.484Z,96320.6
2022-09-21T09:08:39.702Z,96319.3
2022-09-21T09:09:41.639Z,96318
2022-09-21T09:10:44.132Z,96316.3
2022-09-21T09:11:46.616Z,96317.3
2022-09-21T09:12:49.121Z,96317.3
2022-09-21T09:13:51.599Z,96318.3
2022-09-21T09:14:54.071Z,96315
2022-09-21T09:15:56.633Z,96316.8
2022-09-21T09:16:59.433Z,96313.8
2022-09-21T09:18:01.638Z,96314.9
2022-09-21T09:19:04.158Z,96309
2022-09-21T09:20:06.564Z,96312.7
2022-09-21T09:21:09.091Z,96314.4
2022-09-21T09:22:11.853Z,96318
2022-09-21T09:23:13.793Z,96317.8
2022-09-21T09:24:16.273Z,96316.5
2022-09-21T09:25:18.193Z,96313.2
2022-09-21T09:26:20.409Z,96317.6
2022-09-21T09:27:22.902Z,96314.7
2022-09-21T09:28:25.078Z,96313.2
2022-09-21T09:29:27.574Z,96314.2
2022-09-21T09:30:29.783Z,96317.5
2022-09-21T09:31:32.527Z,96316.9
2022-09-21T09:32:34.630Z,96316.5
2022-09-21T09:33:37.104Z,96318.4
2022-09-21T09:34:39.626Z,96316
2022-09-21T09:35:42.104Z,96319.6
2022-09-21T09:37:49.053Z,96318.1
2022-09-21T09:38:51.234Z,96315.5
2022-09-21T09:39:53.443Z,96314.4
2022-09-21T09:40:55.653Z,96317.4
2022-09-21T09:41:58.151Z,96313
2022-09-21T09:44:05.066Z,96311.1
2022-09-21T09:45:07.561Z,96313
2022-09-21T09:47:15.045Z,96310
2022-09-21T09:48:17.279Z,96307.3
2022-09-21T09:49:19.808Z,96304
2022-09-21T09:50:22.557Z,96302.2
2022-09-21T09:51:25.045Z,96302.5
2022-09-21T09:52:27.585Z,96302.2
2022-09-21T09:53:30.054Z,96298.3
2022-09-21T09:54:32.288Z,96298
2022-09-21T09:55:34.763Z,96289.7
2022-09-21T09:56:37.245Z,96295.8
2022-09-21T09:57:39.750Z,96296.9
2022-09-21T09:58:41.960Z,96294.7
2022-09-21T09:59:44.431Z,96295.1
2022-09-21T10:00:46.909Z,96289
2022-09-21T10:01:49.686Z,96287.5
2022-09-21T10:02:51.786Z,96286.2
2022-09-21T10:03:54.438Z,96285.9
2022-09-21T10:04:56.718Z,96283.4
2022-09-21T10:05:59.230Z,96284.6
2022-09-21T10:07:01.728Z,96285.9
2022-09-21T10:08:03.993Z,96281.5
2022-09-21T10:09:06.486Z,96284.3
2022-09-21T10:10:08.700Z,96282.7
2022-09-21T10:11:10.912Z,96280.5
2022-09-21T10:12:13.390Z,96281.3
2022-09-21T10:13:15.615Z,96281
2022-09-21T10:14:18.137Z,96283.6
2022-09-21T10:15:20.349Z,96280.8
2022-09-21T10:16:23.332Z,96285.2
2022-09-21T10:17:25.400Z,96283.2
2022-09-21T10:18:27.911Z,96281.5
2022-09-21T10:19:29.816Z,96280.9
2022-09-21T10:20:32.080Z,96280.8
2022-09-21T10:21:34.598Z,96278.8
2022-09-21T10:22:37.090Z,96279.1
2022-09-21T10:23:39.594Z,96279.3
2022-09-21T10:24:41.498Z,96274.8
2022-09-21T10:25:43.972Z,96276.1
2022-09-21T10:26:46.446Z,96275.6
2022-09-21T10:27:48.655Z,96274.6
2022-09-21T10:28:51.148Z,96272.6
2022-09-21T10:29:53.104Z,96270.3
2022-09-21T10:30:55.793Z,96273.4
2022-09-21T10:31:58.375Z,96270.8
2022-09-21T10:33:00.853Z,96267.4
2022-09-21T10:34:03.354Z,96268
2022-09-21T10:35:05.835Z,96265.5
2022-09-21T10:36:07.744Z,96264.9
2022-09-21T10:37:10.022Z,96263.9
2022-09-21T10:38:12.255Z,96263.8
2022-09-21T10:39:14.793Z,96263.4
2022-09-21T10:40:17.583Z,96262.2
2022-09-21T10:41:19.934Z,96263.6
2022-09-21T10:42:22.138Z,96259.8
2022-09-21T10:43:25.680Z,96259.8
2022-09-21T10:44:29.080Z,96260.4
2022-09-21T10:45:31.571Z,96255.2
2022-09-21T10:46:34.080Z,96257.9
2022-09-21T10:47:36.749Z,96256
2022-09-21T10:48:38.671Z,96257.5
2022-09-21T10:49:40.934Z,96257.7
2022-09-21T10:50:43.401Z,96261.6
2022-09-21T10:51:45.885Z,96259.2
2022-09-21T10:52:48.995Z,96258.5
2022-09-21T10:54:56.459Z,96263.6
2022-09-21T10:57:03.974Z,96257.9
2022-09-21T10:58:06.457Z,96253
2022-09-21T10:59:08.921Z,96250.5
2022-09-21T11:00:11.155Z,96250.4
2022-09-21T11:01:13.947Z,96251.8
2022-09-21T11:02:17.967Z,96252.9
2022-09-21T11:03:20.268Z,96246.1
2022-09-21T11:04:22.751Z,96249
2022-09-21T11:05:25.277Z,96244.9
2022-09-21T11:06:27.746Z,96247.4
2022-09-21T11:07:30.216Z,96246.6
2022-09-21T11:08:32.739Z,96245.4
2022-09-21T11:09:35.206Z,96245.8
2022-09-21T11:10:37.422Z,96245.4
2022-09-21T11:11:39.916Z,96247.2
2022-09-21T11:12:42.401Z,96244.4
2022-09-21T11:13:44.886Z,96246.9
2022-09-21T11:14:47.090Z,96245
2022-09-21T11:15:49.909Z,96243.8
2022-09-21T11:16:52.520Z,96236.6
2022-09-21T11:17:54.719Z,96231
2022-09-21T11:18:57.530Z,96238.4
2022-09-21T11:20:00.094Z,96243
2022-09-21T11:21:02.699Z,96242.9
2022-09-21T11:22:04.917Z,96243.9
2022-09-21T11:23:07.405Z,96241.3
2022-09-21T11:24:10.032Z,96246.1
2022-09-21T11:25:12.268Z,96247.3
2022-09-21T11:26:14.199Z,96244
2022-09-21T11:27:16.711Z,96240.5
2022-09-21T11:28:18.893Z,96245.8
2022-09-21T11:29:21.571Z,96237
2022-09-21T11:30:23.817Z,96239.6
2022-09-21T11:31:26.341Z,96237.4
2022-09-21T11:32:28.536Z,96238.3
2022-09-21T11:33:31.019Z,96237.5
2022-09-21T11:34:33.511Z,96231.1
2022-09-21T11:35:35.727Z,96233.2
2022-09-21T11:36:37.929Z,96233.4
2022-09-21T11:37:40.395Z,96227.3
2022-09-21T11:38:44.893Z,96222.4
2022-09-21T11:39:47.418Z,96229.3
2022-09-21T11:40:49.886Z,96218.8
2022-09-21T11:41:52.079Z,96219.8
2022-09-21T11:42:54.294Z,96219.5
2022-09-21T11:43:59.292Z,96222.1
2022-09-21T11:45:03.817Z,96217.2
2022-09-21T11:46:05.918Z,96213.5
2022-09-21T11:47:08.469Z,96219.5
2022-09-21T11:48:10.948Z,96218.5
2022-09-21T11:49:13.152Z,96217.8
2022-09-21T11:51:20.392Z,96212.2
2022-09-21T11:52:22.675Z,96211.3
2022-09-21T11:53:25.142Z,96209.3
2022-09-21T11:54:27.323Z,96210.6
2022-09-21T11:55:29.562Z,96211.3
2022-09-21T11:56:32.078Z,96208.4
2022-09-21T11:57:34.543Z,96211.2
2022-09-21T11:58:36.784Z,96206.7
2022-09-21T11:59:38.983Z,96203.6
2022-09-21T12:00:41.201Z,96208.5
2022-09-21T12:01:43.411Z,96205.5
2022-09-21T12:02:46.619Z,96203.1
2022-09-21T12:03:49.225Z,96198.8
2022-09-21T12:04:51.465Z,96201.3
2022-09-21T12:05:53.930Z,96199.3
2022-09-21T12:06:55.883Z,96205.6
2022-09-21T12:07:58.381Z,96203
2022-09-21T12:09:00.866Z,96204.4
2022-09-21T12:11:09.420Z,96205.2
2022-09-21T12:12:11.898Z,96200.9
2022-09-21T12:13:13.561Z,96201.3
2022-09-21T12:14:15.807Z,96201
2022-09-21T12:15:18.513Z,96196.6
2022-09-21T12:16:21.381Z,96202
2022-09-21T12:17:23.950Z,96198.1
2022-09-21T12:18:26.213Z,96199.2
2022-09-21T12:19:28.416Z,96197.5
2022-09-21T12:20:30.902Z,96194.5
2022-09-21T12:21:33.370Z,96192.1
2022-09-21T12:22:35.861Z,96191.7
2022-09-21T12:23:38.370Z,96191.4
2022-09-21T12:24:40.571Z,96190.4
2022-09-21T12:25:43.060Z,96188.4
2022-09-21T12:26:45.574Z,96187.9
2022-09-21T12:27:47.782Z,96189.5
2022-09-21T12:28:49.414Z,96191.2
2022-09-21T12:29:51.418Z,96191.3
2022-09-21T12:32:00.557Z,96187.7
2022-09-21T12:33:03.038Z,96187.5
2022-09-21T12:34:05.934Z,96183.1
2022-09-21T12:35:08.629Z,96185.5
2022-09-21T12:36:11.097Z,96186.2
2022-09-21T12:37:13.063Z,96183.7
2022-09-21T12:38:15.293Z,96182.1
2022-09-21T12:39:17.865Z,96185.3
2022-09-21T12:40:20.372Z,96182.9
2022-09-21T12:41:22.502Z,96182.9
2022-09-21T12:42:24.454Z,96184.7
2022-09-21T12:43:26.948Z,96184.1
2022-09-21T12:44:29.159Z,96185
2022-09-21T12:45:31.158Z,96185.3
2022-09-21T12:46:34.088Z,96181.9
2022-09-21T12:47:36.606Z,96184.2
2022-09-21T12:48:39.092Z,96182.3
2022-09-21T12:49:41.590Z,96179.4
2022-09-21T12:50:44.073Z,96180.4
2022-09-21T12:51:45.721Z,96178.7
2022-09-21T12:52:47.921Z,96173.8
2022-09-21T12:53:52.137Z,96174.1
2022-09-21T12:54:54.639Z,96177.5
2022-09-21T12:55:57.128Z,96180.3
2022-09-21T12:56:59.327Z,96180.8
2022-09-21T12:59:07.475Z,96176
2022-09-21T13:00:09.678Z,96180.6